sensor_id;sensor_type;location;lat;lon;timestamp;temperature;humidity
11840;DHT22;5979;50.800;4.904;2023-09-30T00:00:27;13.10;99.90
11840;DHT22;5979;50.800;4.904;2023-09-30T00:02:52;13.00;99.90
11840;DHT22;5979;50.800;4.904;2023-09-30T00:05:18;13.00;99.90
11840;DHT22;5979;50.800;4.904;2023-09-30T00:07:46;13.00;99.90
11840;DHT22;5979;50.800;4.904;2023-09-30T00:10:12;12.90;99.90
11840;DHT22;5979;50.800;4.904;2023-09-30T00:12:38;12.90;99.90
11840;DHT22;5979;50.800;4.904;2023-09-30T00:15:04;12.90;99.90
11840;DHT22;5979;50.800;4.904;2023-09-30T00:17:30;12.90;99.90
11840;DHT22;5979;50.800;4.904;2023-09-30T00:19:56;12.90;99.90
11840;DHT22;5979;50.800;4.904;2023-09-30T00:22:22;12.90;99.90
11840;DHT22;5979;50.800;4.904;2023-09-30T00:24:48;13.00;99.90
11840;DHT22;5979;50.800;4.904;2023-09-30T00:27:13;13.00;99.90
11840;DHT22;5979;50.800;4.904;2023-09-30T00:29:39;13.00;99.90
11840;DHT22;5979;50.800;4.904;2023-09-30T00:32:05;13.10;99.90
11840;DHT22;5979;50.800;4.904;2023-09-30T00:34:35;13.10;99.90
11840;DHT22;5979;50.800;4.904;2023-09-30T00:37:01;13.10;99.90
11840;DHT22;5979;50.800;4.904;2023-09-30T00:39:27;13.10;99.90
11840;DHT22;5979;50.800;4.904;2023-09-30T00:41:56;13.10;99.90
11840;DHT22;5979;50.800;4.904;2023-09-30T00:44:27;13.20;99.90
11840;DHT22;5979;50.800;4.904;2023-09-30T00:46:54;13.10;99.90
11840;DHT22;5979;50.800;4.904;2023-09-30T00:49:22;13.10;99.90
11840;DHT22;5979;50.800;4.904;2023-09-30T00:51:48;13.10;99.90
11840;DHT22;5979;50.800;4.904;2023-09-30T00:54:15;13.10;99.90
11840;DHT22;5979;50.800;4.904;2023-09-30T00:56:45;13.10;99.90
11840;DHT22;5979;50.800;4.904;2023-09-30T00:59:14;13.10;99.90
11840;DHT22;5979;50.800;4.904;2023-09-30T01:01:42;13.10;99.90
11840;DHT22;5979;50.800;4.904;2023-09-30T01:04:09;13.10;99.90
11840;DHT22;5979;50.800;4.904;2023-09-30T01:06:35;13.10;99.90
11840;DHT22;5979;50.800;4.904;2023-09-30T01:09:01;13.10;99.90
11840;DHT22;5979;50.800;4.904;2023-09-30T01:11:26;13.10;99.90
11840;DHT22;5979;50.800;4.904;2023-09-30T01:13:52;13.10;99.90
11840;DHT22;5979;50.800;4.904;2023-09-30T01:16:18;13.20;99.90
11840;DHT22;5979;50.800;4.904;2023-09-30T01:18:43;13.20;99.90
11840;DHT22;5979;50.800;4.904;2023-09-30T01:21:09;13.20;99.90
11840;DHT22;5979;50.800;4.904;2023-09-30T01:23:35;13.20;99.90
11840;DHT22;5979;50.800;4.904;2023-09-30T01:26:02;13.10;99.90
11840;DHT22;5979;50.800;4.904;2023-09-30T01:28:29;13.10;99.90
11840;DHT22;5979;50.800;4.904;2023-09-30T01:30:56;13.10;99.90
11840;DHT22;5979;50.800;4.904;2023-09-30T01:33:21;13.20;99.90
11840;DHT22;5979;50.800;4.904;2023-09-30T01:35:47;13.20;99.90
11840;DHT22;5979;50.800;4.904;2023-09-30T01:38:13;13.20;99.90
11840;DHT22;5979;50.800;4.904;2023-09-30T01:40:39;13.20;99.90
11840;DHT22;5979;50.800;4.904;2023-09-30T01:43:04;13.20;99.90
11840;DHT22;5979;50.800;4.904;2023-09-30T01:45:30;13.10;99.90
11840;DHT22;5979;50.800;4.904;2023-09-30T01:47:56;13.00;99.90
11840;DHT22;5979;50.800;4.904;2023-09-30T01:50:21;13.00;99.90
11840;DHT22;5979;50.800;4.904;2023-09-30T01:52:47;12.90;99.90
11840;DHT22;5979;50.800;4.904;2023-09-30T01:55:13;12.80;99.90
11840;DHT22;5979;50.800;4.904;2023-09-30T01:57:38;12.80;99.90
11840;DHT22;5979;50.800;4.904;2023-09-30T02:00:05;12.80;99.90
11840;DHT22;5979;50.800;4.904;2023-09-30T02:02:34;12.80;99.90
11840;DHT22;5979;50.800;4.904;2023-09-30T02:05:00;12.80;99.90
11840;DHT22;5979;50.800;4.904;2023-09-30T02:07:26;12.80;99.90
11840;DHT22;5979;50.800;4.904;2023-09-30T02:09:52;12.70;99.90
11840;DHT22;5979;50.800;4.904;2023-09-30T02:12:17;12.70;99.90
11840;DHT22;5979;50.800;4.904;2023-09-30T02:14:43;12.70;99.90
11840;DHT22;5979;50.800;4.904;2023-09-30T02:17:09;12.70;99.90
11840;DHT22;5979;50.800;4.904;2023-09-30T02:19:34;12.70;99.90
11840;DHT22;5979;50.800;4.904;2023-09-30T02:22:00;12.60;99.90
11840;DHT22;5979;50.800;4.904;2023-09-30T02:24:26;12.60;99.90
11840;DHT22;5979;50.800;4.904;2023-09-30T02:26:51;12.60;99.90
11840;DHT22;5979;50.800;4.904;2023-09-30T02:29:17;12.60;99.90
11840;DHT22;5979;50.800;4.904;2023-09-30T02:31:42;12.60;99.90
11840;DHT22;5979;50.800;4.904;2023-09-30T02:34:08;12.60;99.90
11840;DHT22;5979;50.800;4.904;2023-09-30T02:36:34;12.60;99.90
11840;DHT22;5979;50.800;4.904;2023-09-30T02:39:07;12.60;99.90
11840;DHT22;5979;50.800;4.904;2023-09-30T02:41:35;12.60;99.90
11840;DHT22;5979;50.800;4.904;2023-09-30T02:44:01;12.60;99.90
11840;DHT22;5979;50.800;4.904;2023-09-30T02:46:26;12.50;99.90
11840;DHT22;5979;50.800;4.904;2023-09-30T02:48:53;12.50;99.90
11840;DHT22;5979;50.800;4.904;2023-09-30T02:51:19;12.50;99.90
11840;DHT22;5979;50.800;4.904;2023-09-30T02:53:45;12.40;99.90
11840;DHT22;5979;50.800;4.904;2023-09-30T02:56:13;12.50;99.90
11840;DHT22;5979;50.800;4.904;2023-09-30T02:58:39;12.40;99.90
11840;DHT22;5979;50.800;4.904;2023-09-30T03:01:06;12.50;99.90
11840;DHT22;5979;50.800;4.904;2023-09-30T03:03:32;12.40;99.90
11840;DHT22;5979;50.800;4.904;2023-09-30T03:05:59;12.40;99.90
11840;DHT22;5979;50.800;4.904;2023-09-30T03:08:26;12.40;99.90
11840;DHT22;5979;50.800;4.904;2023-09-30T03:10:52;12.50;99.90
11840;DHT22;5979;50.800;4.904;2023-09-30T03:13:18;12.50;99.90
11840;DHT22;5979;50.800;4.904;2023-09-30T03:15:47;12.40;99.90
11840;DHT22;5979;50.800;4.904;2023-09-30T03:18:15;12.30;99.90
11840;DHT22;5979;50.800;4.904;2023-09-30T03:20:42;12.30;99.90
11840;DHT22;5979;50.800;4.904;2023-09-30T03:23:09;12.40;99.90
11840;DHT22;5979;50.800;4.904;2023-09-30T03:25:35;12.40;99.90
11840;DHT22;5979;50.800;4.904;2023-09-30T03:28:01;12.40;99.90
11840;DHT22;5979;50.800;4.904;2023-09-30T03:30:26;12.40;99.90
11840;DHT22;5979;50.800;4.904;2023-09-30T03:32:52;12.40;99.90
11840;DHT22;5979;50.800;4.904;2023-09-30T03:35:18;12.30;99.90
11840;DHT22;5979;50.800;4.904;2023-09-30T03:37:44;12.30;99.90
11840;DHT22;5979;50.800;4.904;2023-09-30T03:40:11;12.30;99.90
11840;DHT22;5979;50.800;4.904;2023-09-30T03:42:41;12.30;99.90
11840;DHT22;5979;50.800;4.904;2023-09-30T03:45:10;12.20;99.90
11840;DHT22;5979;50.800;4.904;2023-09-30T03:47:37;12.20;99.90
11840;DHT22;5979;50.800;4.904;2023-09-30T03:50:03;12.20;99.90
11840;DHT22;5979;50.800;4.904;2023-09-30T03:52:30;12.10;99.90
11840;DHT22;5979;50.800;4.904;2023-09-30T03:55:01;12.10;99.90
11840;DHT22;5979;50.800;4.904;2023-09-30T03:57:31;12.20;99.90
11840;DHT22;5979;50.800;4.904;2023-09-30T03:59:57;12.10;99.90
11840;DHT22;5979;50.800;4.904;2023-09-30T04:02:23;12.10;99.90
11840;DHT22;5979;50.800;4.904;2023-09-30T04:04:48;12.10;99.90
11840;DHT22;5979;50.800;4.904;2023-09-30T04:07:17;12.10;99.90
11840;DHT22;5979;50.800;4.904;2023-09-30T04:09:43;12.00;99.90
11840;DHT22;5979;50.800;4.904;2023-09-30T04:12:08;12.00;99.90
11840;DHT22;5979;50.800;4.904;2023-09-30T04:14:34;12.00;99.90
11840;DHT22;5979;50.800;4.904;2023-09-30T04:17:00;12.00;99.90
11840;DHT22;5979;50.800;4.904;2023-09-30T04:19:25;12.00;99.90
11840;DHT22;5979;50.800;4.904;2023-09-30T04:21:51;12.00;99.90
11840;DHT22;5979;50.800;4.904;2023-09-30T04:24:17;12.00;99.90
11840;DHT22;5979;50.800;4.904;2023-09-30T04:26:44;11.90;99.90
11840;DHT22;5979;50.800;4.904;2023-09-30T04:29:10;11.90;99.90
11840;DHT22;5979;50.800;4.904;2023-09-30T04:31:37;11.90;99.90
11840;DHT22;5979;50.800;4.904;2023-09-30T04:34:04;11.90;99.90
11840;DHT22;5979;50.800;4.904;2023-09-30T04:36:31;11.80;99.90
11840;DHT22;5979;50.800;4.904;2023-09-30T04:38:57;11.80;99.90
11840;DHT22;5979;50.800;4.904;2023-09-30T04:41:26;11.80;99.90
11840;DHT22;5979;50.800;4.904;2023-09-30T04:43:52;11.80;99.90
11840;DHT22;5979;50.800;4.904;2023-09-30T04:46:18;11.70;99.90
11840;DHT22;5979;50.800;4.904;2023-09-30T04:48:45;11.70;99.90
11840;DHT22;5979;50.800;4.904;2023-09-30T04:51:13;11.70;99.90
11840;DHT22;5979;50.800;4.904;2023-09-30T04:53:41;11.70;99.90
11840;DHT22;5979;50.800;4.904;2023-09-30T04:56:07;11.60;99.90
11840;DHT22;5979;50.800;4.904;2023-09-30T04:58:33;11.60;99.90
11840;DHT22;5979;50.800;4.904;2023-09-30T05:00:58;11.70;99.90
11840;DHT22;5979;50.800;4.904;2023-09-30T05:03:24;11.70;99.90
11840;DHT22;5979;50.800;4.904;2023-09-30T05:05:54;11.70;99.90
11840;DHT22;5979;50.800;4.904;2023-09-30T05:08:24;11.70;99.90
11840;DHT22;5979;50.800;4.904;2023-09-30T05:10:50;11.70;99.90
11840;DHT22;5979;50.800;4.904;2023-09-30T05:13:15;11.70;99.90
11840;DHT22;5979;50.800;4.904;2023-09-30T05:15:41;11.70;99.90
11840;DHT22;5979;50.800;4.904;2023-09-30T05:18:07;11.70;99.90
11840;DHT22;5979;50.800;4.904;2023-09-30T05:20:35;11.70;99.90
11840;DHT22;5979;50.800;4.904;2023-09-30T05:23:02;11.70;99.90
11840;DHT22;5979;50.800;4.904;2023-09-30T05:25:28;11.70;99.90
11840;DHT22;5979;50.800;4.904;2023-09-30T05:27:54;11.70;99.90
11840;DHT22;5979;50.800;4.904;2023-09-30T05:30:19;11.70;99.90
11840;DHT22;5979;50.800;4.904;2023-09-30T05:32:46;11.70;99.90
11840;DHT22;5979;50.800;4.904;2023-09-30T05:35:12;11.70;99.90
11840;DHT22;5979;50.800;4.904;2023-09-30T05:37:42;11.70;99.90
11840;DHT22;5979;50.800;4.904;2023-09-30T05:40:08;11.70;99.90
11840;DHT22;5979;50.800;4.904;2023-09-30T05:42:46;11.60;99.90
11840;DHT22;5979;50.800;4.904;2023-09-30T05:45:11;11.70;99.90
11840;DHT22;5979;50.800;4.904;2023-09-30T05:47:41;11.70;99.90
11840;DHT22;5979;50.800;4.904;2023-09-30T05:50:07;11.80;99.90
11840;DHT22;5979;50.800;4.904;2023-09-30T05:52:34;11.80;99.90
11840;DHT22;5979;50.800;4.904;2023-09-30T05:55:00;11.90;99.90
11840;DHT22;5979;50.800;4.904;2023-09-30T05:57:27;11.90;99.90
11840;DHT22;5979;50.800;4.904;2023-09-30T05:59:52;12.00;99.90
11840;DHT22;5979;50.800;4.904;2023-09-30T06:02:18;12.00;99.90
11840;DHT22;5979;50.800;4.904;2023-09-30T06:04:45;12.10;99.90
11840;DHT22;5979;50.800;4.904;2023-09-30T06:07:11;12.10;99.90
11840;DHT22;5979;50.800;4.904;2023-09-30T06:09:38;12.20;99.90
11840;DHT22;5979;50.800;4.904;2023-09-30T06:12:03;12.20;99.90
11840;DHT22;5979;50.800;4.904;2023-09-30T06:14:34;12.20;99.90
11840;DHT22;5979;50.800;4.904;2023-09-30T06:17:00;12.20;99.90
11840;DHT22;5979;50.800;4.904;2023-09-30T06:19:26;12.20;99.90
11840;DHT22;5979;50.800;4.904;2023-09-30T06:21:52;12.20;99.90
11840;DHT22;5979;50.800;4.904;2023-09-30T06:24:18;12.30;99.90
11840;DHT22;5979;50.800;4.904;2023-09-30T06:26:47;12.40;99.90
11840;DHT22;5979;50.800;4.904;2023-09-30T06:29:14;12.40;99.90
11840;DHT22;5979;50.800;4.904;2023-09-30T06:31:40;12.40;99.90
11840;DHT22;5979;50.800;4.904;2023-09-30T06:34:06;12.50;99.90
11840;DHT22;5979;50.800;4.904;2023-09-30T06:36:32;12.60;99.90
11840;DHT22;5979;50.800;4.904;2023-09-30T06:38:58;12.70;99.90
11840;DHT22;5979;50.800;4.904;2023-09-30T06:41:24;12.80;99.90
11840;DHT22;5979;50.800;4.904;2023-09-30T06:43:51;12.90;99.90
11840;DHT22;5979;50.800;4.904;2023-09-30T06:46:17;13.00;99.90
11840;DHT22;5979;50.800;4.904;2023-09-30T06:48:43;13.10;99.90
11840;DHT22;5979;50.800;4.904;2023-09-30T06:51:13;13.20;99.90
11840;DHT22;5979;50.800;4.904;2023-09-30T06:53:40;13.40;99.90
11840;DHT22;5979;50.800;4.904;2023-09-30T06:56:06;13.50;99.90
11840;DHT22;5979;50.800;4.904;2023-09-30T06:58:32;13.70;99.90
11840;DHT22;5979;50.800;4.904;2023-09-30T07:00:57;13.90;99.90
11840;DHT22;5979;50.800;4.904;2023-09-30T07:03:23;13.90;99.90
11840;DHT22;5979;50.800;4.904;2023-09-30T07:05:49;14.00;99.90
11840;DHT22;5979;50.800;4.904;2023-09-30T07:08:16;14.10;99.90
11840;DHT22;5979;50.800;4.904;2023-09-30T07:10:44;14.20;99.90
11840;DHT22;5979;50.800;4.904;2023-09-30T07:13:09;14.30;99.90
11840;DHT22;5979;50.800;4.904;2023-09-30T07:15:35;14.30;99.90
11840;DHT22;5979;50.800;4.904;2023-09-30T07:18:01;14.40;99.90
11840;DHT22;5979;50.800;4.904;2023-09-30T07:20:27;14.50;99.90
11840;DHT22;5979;50.800;4.904;2023-09-30T07:22:54;14.60;99.90
11840;DHT22;5979;50.800;4.904;2023-09-30T07:25:20;14.70;99.90
11840;DHT22;5979;50.800;4.904;2023-09-30T07:27:46;14.70;99.90
11840;DHT22;5979;50.800;4.904;2023-09-30T07:30:13;14.80;99.90
11840;DHT22;5979;50.800;4.904;2023-09-30T07:32:43;15.00;99.90
11840;DHT22;5979;50.800;4.904;2023-09-30T07:35:10;15.20;99.90
11840;DHT22;5979;50.800;4.904;2023-09-30T07:37:35;15.30;99.90
11840;DHT22;5979;50.800;4.904;2023-09-30T07:40:01;15.50;99.90
11840;DHT22;5979;50.800;4.904;2023-09-30T07:42:27;15.70;99.90
11840;DHT22;5979;50.800;4.904;2023-09-30T07:44:53;15.80;99.90
11840;DHT22;5979;50.800;4.904;2023-09-30T07:47:19;16.00;99.90
11840;DHT22;5979;50.800;4.904;2023-09-30T07:49:45;16.30;99.90
11840;DHT22;5979;50.800;4.904;2023-09-30T07:52:12;16.30;99.90
11840;DHT22;5979;50.800;4.904;2023-09-30T07:54:37;16.50;99.90
11840;DHT22;5979;50.800;4.904;2023-09-30T07:57:03;16.70;99.90
11840;DHT22;5979;50.800;4.904;2023-09-30T07:59:28;16.90;99.90
11840;DHT22;5979;50.800;4.904;2023-09-30T08:01:54;17.10;99.90
11840;DHT22;5979;50.800;4.904;2023-09-30T08:04:20;17.30;99.90
11840;DHT22;5979;50.800;4.904;2023-09-30T08:06:46;17.40;99.90
11840;DHT22;5979;50.800;4.904;2023-09-30T08:09:13;17.60;99.90
11840;DHT22;5979;50.800;4.904;2023-09-30T08:11:39;17.70;99.90
11840;DHT22;5979;50.800;4.904;2023-09-30T08:14:05;17.80;99.90
11840;DHT22;5979;50.800;4.904;2023-09-30T08:16:38;17.90;99.90
11840;DHT22;5979;50.800;4.904;2023-09-30T08:19:04;18.00;99.90
11840;DHT22;5979;50.800;4.904;2023-09-30T08:21:30;18.10;99.90
11840;DHT22;5979;50.800;4.904;2023-09-30T08:23:57;18.20;99.90
11840;DHT22;5979;50.800;4.904;2023-09-30T08:26:22;18.20;99.90
11840;DHT22;5979;50.800;4.904;2023-09-30T08:28:48;18.20;99.90
11840;DHT22;5979;50.800;4.904;2023-09-30T08:31:14;18.20;99.90
11840;DHT22;5979;50.800;4.904;2023-09-30T08:33:40;18.20;99.90
11840;DHT22;5979;50.800;4.904;2023-09-30T08:36:08;18.20;99.90
11840;DHT22;5979;50.800;4.904;2023-09-30T08:38:36;18.30;99.90
11840;DHT22;5979;50.800;4.904;2023-09-30T08:41:02;18.40;99.90
11840;DHT22;5979;50.800;4.904;2023-09-30T08:43:29;18.50;99.90
11840;DHT22;5979;50.800;4.904;2023-09-30T08:45:57;18.60;99.90
11840;DHT22;5979;50.800;4.904;2023-09-30T08:48:23;18.80;99.90
11840;DHT22;5979;50.800;4.904;2023-09-30T08:50:53;18.90;99.90
11840;DHT22;5979;50.800;4.904;2023-09-30T08:53:20;19.00;99.90
11840;DHT22;5979;50.800;4.904;2023-09-30T08:55:46;19.10;99.90
11840;DHT22;5979;50.800;4.904;2023-09-30T08:58:13;19.20;99.90
11840;DHT22;5979;50.800;4.904;2023-09-30T09:00:39;19.30;99.90
11840;DHT22;5979;50.800;4.904;2023-09-30T09:03:08;19.30;99.90
11840;DHT22;5979;50.800;4.904;2023-09-30T09:05:34;19.20;99.90
11840;DHT22;5979;50.800;4.904;2023-09-30T09:08:00;19.20;99.90
11840;DHT22;5979;50.800;4.904;2023-09-30T09:10:26;19.30;99.90
11840;DHT22;5979;50.800;4.904;2023-09-30T09:12:56;19.40;99.90
11840;DHT22;5979;50.800;4.904;2023-09-30T09:15:28;19.50;99.90
11840;DHT22;5979;50.800;4.904;2023-09-30T09:17:54;19.60;99.90
11840;DHT22;5979;50.800;4.904;2023-09-30T09:20:24;19.60;99.90
11840;DHT22;5979;50.800;4.904;2023-09-30T09:22:55;19.60;99.90
11840;DHT22;5979;50.800;4.904;2023-09-30T09:25:22;19.60;99.90
11840;DHT22;5979;50.800;4.904;2023-09-30T09:27:51;19.60;99.90
11840;DHT22;5979;50.800;4.904;2023-09-30T09:30:22;19.70;99.90
11840;DHT22;5979;50.800;4.904;2023-09-30T09:32:53;19.80;99.90
11840;DHT22;5979;50.800;4.904;2023-09-30T09:35:23;19.80;99.90
11840;DHT22;5979;50.800;4.904;2023-09-30T09:38:07;19.90;99.90
11840;DHT22;5979;50.800;4.904;2023-09-30T09:40:38;20.00;99.90
11840;DHT22;5979;50.800;4.904;2023-09-30T09:43:06;20.10;99.90
11840;DHT22;5979;50.800;4.904;2023-09-30T09:45:36;20.00;99.90
11840;DHT22;5979;50.800;4.904;2023-09-30T09:48:04;20.00;99.90
11840;DHT22;5979;50.800;4.904;2023-09-30T09:50:30;20.10;99.90
11840;DHT22;5979;50.800;4.904;2023-09-30T09:52:58;20.10;99.90
11840;DHT22;5979;50.800;4.904;2023-09-30T09:55:26;20.10;99.90
11840;DHT22;5979;50.800;4.904;2023-09-30T09:57:53;20.10;99.90
11840;DHT22;5979;50.800;4.904;2023-09-30T10:00:22;20.10;99.90
11840;DHT22;5979;50.800;4.904;2023-09-30T10:02:50;20.20;99.90
11840;DHT22;5979;50.800;4.904;2023-09-30T10:05:16;20.20;99.90
11840;DHT22;5979;50.800;4.904;2023-09-30T10:08:00;20.30;99.90
11840;DHT22;5979;50.800;4.904;2023-09-30T10:10:27;20.30;99.90
11840;DHT22;5979;50.800;4.904;2023-09-30T10:12:53;20.20;99.90
11840;DHT22;5979;50.800;4.904;2023-09-30T10:18:01;20.00;99.90
11840;DHT22;5979;50.800;4.904;2023-09-30T10:20:34;20.10;99.90
11840;DHT22;5979;50.800;4.904;2023-09-30T10:25:51;20.30;99.90
11840;DHT22;5979;50.800;4.904;2023-09-30T10:28:46;20.30;99.90
11840;DHT22;5979;50.800;4.904;2023-09-30T10:31:22;20.20;99.90
11840;DHT22;5979;50.800;4.904;2023-09-30T10:36:40;20.40;99.90
11840;DHT22;5979;50.800;4.904;2023-09-30T10:39:14;20.40;99.90
11840;DHT22;5979;50.800;4.904;2023-09-30T10:47:00;20.50;99.90
11840;DHT22;5979;50.800;4.904;2023-09-30T10:49:46;20.70;99.90
11840;DHT22;5979;50.800;4.904;2023-09-30T10:52:21;20.80;99.90
11840;DHT22;5979;50.800;4.904;2023-09-30T10:54:49;20.90;99.90
11840;DHT22;5979;50.800;4.904;2023-09-30T10:57:26;21.00;99.90
11840;DHT22;5979;50.800;4.904;2023-09-30T11:00:13;21.10;99.90
11840;DHT22;5979;50.800;4.904;2023-09-30T11:02:51;21.10;99.90
11840;DHT22;5979;50.800;4.904;2023-09-30T11:05:19;21.20;99.90
11840;DHT22;5979;50.800;4.904;2023-09-30T11:07:48;21.20;99.90
11840;DHT22;5979;50.800;4.904;2023-09-30T11:10:17;21.30;99.90
11840;DHT22;5979;50.800;4.904;2023-09-30T11:12:56;21.50;99.90
11840;DHT22;5979;50.800;4.904;2023-09-30T11:15:23;21.60;99.90
11840;DHT22;5979;50.800;4.904;2023-09-30T11:17:51;21.60;99.90
11840;DHT22;5979;50.800;4.904;2023-09-30T11:20:17;21.70;99.90
11840;DHT22;5979;50.800;4.904;2023-09-30T11:22:44;21.70;99.90
11840;DHT22;5979;50.800;4.904;2023-09-30T11:25:37;21.70;99.90
11840;DHT22;5979;50.800;4.904;2023-09-30T11:28:18;21.80;99.90
11840;DHT22;5979;50.800;4.904;2023-09-30T11:30:58;21.80;99.90
11840;DHT22;5979;50.800;4.904;2023-09-30T11:33:25;21.70;99.90
11840;DHT22;5979;50.800;4.904;2023-09-30T11:36:04;21.50;99.90
11840;DHT22;5979;50.800;4.904;2023-09-30T11:38:32;21.50;99.90
11840;DHT22;5979;50.800;4.904;2023-09-30T11:41:02;21.50;99.90
11840;DHT22;5979;50.800;4.904;2023-09-30T11:43:30;21.60;99.90
11840;DHT22;5979;50.800;4.904;2023-09-30T11:46:10;21.60;99.90
11840;DHT22;5979;50.800;4.904;2023-09-30T11:48:59;21.70;99.90
11840;DHT22;5979;50.800;4.904;2023-09-30T11:51:26;21.80;99.90
11840;DHT22;5979;50.800;4.904;2023-09-30T11:53:53;21.70;99.90
11840;DHT22;5979;50.800;4.904;2023-09-30T11:56:19;21.70;99.90
11840;DHT22;5979;50.800;4.904;2023-09-30T11:58:45;21.70;99.90
11840;DHT22;5979;50.800;4.904;2023-09-30T12:01:11;21.80;99.90
11840;DHT22;5979;50.800;4.904;2023-09-30T12:03:39;21.80;99.90
11840;DHT22;5979;50.800;4.904;2023-09-30T12:06:08;21.70;99.90
11840;DHT22;5979;50.800;4.904;2023-09-30T12:08:39;21.70;99.90
11840;DHT22;5979;50.800;4.904;2023-09-30T12:11:05;21.60;99.90
11840;DHT22;5979;50.800;4.904;2023-09-30T12:13:31;21.60;99.90
11840;DHT22;5979;50.800;4.904;2023-09-30T12:15:57;21.50;99.90
11840;DHT22;5979;50.800;4.904;2023-09-30T12:18:23;21.40;99.90
11840;DHT22;5979;50.800;4.904;2023-09-30T12:20:52;21.40;99.90
11840;DHT22;5979;50.800;4.904;2023-09-30T12:23:19;21.20;99.90
11840;DHT22;5979;50.800;4.904;2023-09-30T12:25:46;21.20;99.90
11840;DHT22;5979;50.800;4.904;2023-09-30T12:28:12;21.20;99.90
11840;DHT22;5979;50.800;4.904;2023-09-30T12:30:39;21.20;99.90
11840;DHT22;5979;50.800;4.904;2023-09-30T12:33:07;21.30;99.90
11840;DHT22;5979;50.800;4.904;2023-09-30T12:35:33;21.30;99.90
11840;DHT22;5979;50.800;4.904;2023-09-30T12:37:59;21.10;99.90
11840;DHT22;5979;50.800;4.904;2023-09-30T12:40:25;21.10;99.90
11840;DHT22;5979;50.800;4.904;2023-09-30T12:42:51;21.20;99.90
11840;DHT22;5979;50.800;4.904;2023-09-30T12:45:16;21.30;99.90
11840;DHT22;5979;50.800;4.904;2023-09-30T12:47:44;21.50;99.90
11840;DHT22;5979;50.800;4.904;2023-09-30T12:50:10;21.60;99.90
11840;DHT22;5979;50.800;4.904;2023-09-30T12:52:36;21.70;99.90
11840;DHT22;5979;50.800;4.904;2023-09-30T12:55:03;21.70;99.90
11840;DHT22;5979;50.800;4.904;2023-09-30T12:57:30;21.80;99.90
11840;DHT22;5979;50.800;4.904;2023-09-30T12:59:56;21.90;99.90
11840;DHT22;5979;50.800;4.904;2023-09-30T13:02:22;22.00;99.90
11840;DHT22;5979;50.800;4.904;2023-09-30T13:04:48;22.00;99.90
11840;DHT22;5979;50.800;4.904;2023-09-30T13:07:14;22.10;99.90
11840;DHT22;5979;50.800;4.904;2023-09-30T13:09:40;22.10;99.90
11840;DHT22;5979;50.800;4.904;2023-09-30T13:12:06;22.20;99.90
11840;DHT22;5979;50.800;4.904;2023-09-30T13:14:32;22.20;99.90
11840;DHT22;5979;50.800;4.904;2023-09-30T13:16:58;22.10;99.90
11840;DHT22;5979;50.800;4.904;2023-09-30T13:19:24;22.10;99.90
11840;DHT22;5979;50.800;4.904;2023-09-30T13:21:50;22.10;99.90
11840;DHT22;5979;50.800;4.904;2023-09-30T13:24:19;22.00;99.90
11840;DHT22;5979;50.800;4.904;2023-09-30T13:26:45;22.00;99.90
11840;DHT22;5979;50.800;4.904;2023-09-30T13:29:11;22.00;99.90
11840;DHT22;5979;50.800;4.904;2023-09-30T13:31:38;22.00;99.90
11840;DHT22;5979;50.800;4.904;2023-09-30T13:34:05;21.90;99.90
11840;DHT22;5979;50.800;4.904;2023-09-30T13:36:31;21.80;99.90
11840;DHT22;5979;50.800;4.904;2023-09-30T13:38:57;21.90;99.90
11840;DHT22;5979;50.800;4.904;2023-09-30T13:41:23;21.90;99.90
11840;DHT22;5979;50.800;4.904;2023-09-30T13:43:48;22.00;99.90
11840;DHT22;5979;50.800;4.904;2023-09-30T13:46:14;22.00;99.90
11840;DHT22;5979;50.800;4.904;2023-09-30T13:48:41;22.00;99.90
11840;DHT22;5979;50.800;4.904;2023-09-30T13:51:08;22.00;99.90
11840;DHT22;5979;50.800;4.904;2023-09-30T13:53:34;22.00;99.90
11840;DHT22;5979;50.800;4.904;2023-09-30T13:56:00;22.00;99.90
11840;DHT22;5979;50.800;4.904;2023-09-30T13:58:26;22.00;99.90
11840;DHT22;5979;50.800;4.904;2023-09-30T14:00:52;21.90;99.90
11840;DHT22;5979;50.800;4.904;2023-09-30T14:03:18;21.90;99.90
11840;DHT22;5979;50.800;4.904;2023-09-30T14:05:45;21.90;99.90
11840;DHT22;5979;50.800;4.904;2023-09-30T14:08:11;21.80;99.90
11840;DHT22;5979;50.800;4.904;2023-09-30T14:10:37;21.80;99.90
11840;DHT22;5979;50.800;4.904;2023-09-30T14:13:03;21.70;99.90
11840;DHT22;5979;50.800;4.904;2023-09-30T14:15:29;21.60;99.90
11840;DHT22;5979;50.800;4.904;2023-09-30T14:17:57;21.60;99.90
11840;DHT22;5979;50.800;4.904;2023-09-30T14:20:24;21.50;99.90
11840;DHT22;5979;50.800;4.904;2023-09-30T14:22:52;21.50;99.90
11840;DHT22;5979;50.800;4.904;2023-09-30T14:25:20;21.50;99.90
11840;DHT22;5979;50.800;4.904;2023-09-30T14:27:47;21.50;99.90
11840;DHT22;5979;50.800;4.904;2023-09-30T14:30:13;21.60;99.90
11840;DHT22;5979;50.800;4.904;2023-09-30T14:32:39;21.50;99.90
11840;DHT22;5979;50.800;4.904;2023-09-30T14:35:06;21.60;99.90
11840;DHT22;5979;50.800;4.904;2023-09-30T14:37:32;21.60;99.90
11840;DHT22;5979;50.800;4.904;2023-09-30T14:39:57;21.60;99.90
11840;DHT22;5979;50.800;4.904;2023-09-30T14:42:23;21.60;99.90
11840;DHT22;5979;50.800;4.904;2023-09-30T14:44:49;21.70;99.90
11840;DHT22;5979;50.800;4.904;2023-09-30T14:47:14;21.70;99.90
11840;DHT22;5979;50.800;4.904;2023-09-30T14:49:41;21.70;99.90
11840;DHT22;5979;50.800;4.904;2023-09-30T14:52:07;21.70;99.90
11840;DHT22;5979;50.800;4.904;2023-09-30T14:54:32;21.70;99.90
11840;DHT22;5979;50.800;4.904;2023-09-30T14:56:58;21.70;99.90
11840;DHT22;5979;50.800;4.904;2023-09-30T14:59:24;21.70;99.90
11840;DHT22;5979;50.800;4.904;2023-09-30T15:01:49;21.70;99.90
11840;DHT22;5979;50.800;4.904;2023-09-30T15:04:15;21.60;99.90
11840;DHT22;5979;50.800;4.904;2023-09-30T15:06:44;21.40;99.90
11840;DHT22;5979;50.800;4.904;2023-09-30T15:09:11;21.40;99.90
11840;DHT22;5979;50.800;4.904;2023-09-30T15:11:37;21.30;99.90
11840;DHT22;5979;50.800;4.904;2023-09-30T15:14:03;21.20;99.90
11840;DHT22;5979;50.800;4.904;2023-09-30T15:16:30;21.10;99.90
11840;DHT22;5979;50.800;4.904;2023-09-30T15:18:57;21.10;99.90
11840;DHT22;5979;50.800;4.904;2023-09-30T15:21:22;21.00;99.90
11840;DHT22;5979;50.800;4.904;2023-09-30T15:23:50;21.00;99.90
11840;DHT22;5979;50.800;4.904;2023-09-30T15:26:15;20.90;99.90
11840;DHT22;5979;50.800;4.904;2023-09-30T15:28:41;20.90;99.90
11840;DHT22;5979;50.800;4.904;2023-09-30T15:31:07;20.80;99.90
11840;DHT22;5979;50.800;4.904;2023-09-30T15:33:34;20.80;99.90
11840;DHT22;5979;50.800;4.904;2023-09-30T15:36:08;20.70;99.90
11840;DHT22;5979;50.800;4.904;2023-09-30T15:38:33;20.60;99.90
11840;DHT22;5979;50.800;4.904;2023-09-30T15:40:59;20.50;99.90
11840;DHT22;5979;50.800;4.904;2023-09-30T15:43:31;20.50;99.90
11840;DHT22;5979;50.800;4.904;2023-09-30T15:45:58;20.40;99.90
11840;DHT22;5979;50.800;4.904;2023-09-30T15:48:24;20.40;99.90
11840;DHT22;5979;50.800;4.904;2023-09-30T15:50:50;20.30;99.90
11840;DHT22;5979;50.800;4.904;2023-09-30T15:53:16;20.20;99.90
11840;DHT22;5979;50.800;4.904;2023-09-30T15:55:42;20.10;99.90
11840;DHT22;5979;50.800;4.904;2023-09-30T15:58:08;20.10;99.90